Time;durP1;ratioP1;P1;durP2;ratioP2;P2;SDS_P1;SDS_P2;PMS_P1;PMS_P2;Temp;Humidity;BMP_temperature;BMP_pressure;BME280_temperature;BME280_humidity;BME280_pressure;Samples;Min_cycle;Max_cycle;Signal;HPM_P1;HPM_P2
2022/06/19 00:00:01;;;;;;;6.13;1.90;;;20.50;99.90;;;;;;12467961;28;20191;-86
2022/06/19 00:06:03;;;;;;;3.90;1.60;;;20.50;99.90;;;;;;12464502;28;20086;-86
2022/06/19 00:12:05;;;;;;;4.85;1.63;;;20.50;99.90;;;;;;12485371;28;20050;-87
2022/06/19 00:18:07;;;;;;;6.72;1.85;;;20.40;99.90;;;;;;12477744;28;20455;-87
2022/06/19 00:24:12;;;;;;;3.65;2.08;;;20.40;99.90;;;;;;12478194;28;20049;-87
2022/06/19 00:30:14;;;;;;;4.63;1.98;;;20.20;99.90;;;;;;12475873;28;20141;-86
2022/06/19 00:36:16;;;;;;;6.18;2.00;;;19.70;99.90;;;;;;12451946;28;20049;-86
2022/06/19 00:42:18;;;;;;;9.65;2.00;;;19.80;99.90;;;;;;12462987;28;20050;-87
2022/06/19 00:48:35;;;;;;;3.40;1.73;;;19.80;99.90;;;;;;12474502;28;20587;-87
2022/06/19 00:54:59;;;;;;;5.50;2.20;;;19.80;99.90;;;;;;12474216;28;20044;-86
2022/06/19 01:01:07;;;;;;;5.75;2.13;;;19.80;99.90;;;;;;12463877;28;20053;-86
2022/06/19 01:07:10;;;;;;;4.95;2.00;;;19.70;99.90;;;;;;12477607;28;20164;-87
2022/06/19 01:13:14;;;;;;;5.35;2.00;;;19.60;99.90;;;;;;12459458;28;20140;-87
2022/06/19 01:19:27;;;;;;;5.18;2.20;;;19.50;99.90;;;;;;12449155;28;20053;-86
2022/06/19 01:25:34;;;;;;;5.30;2.13;;;19.60;99.90;;;;;;12472423;28;20309;-87
2022/06/19 01:31:48;;;;;;;4.20;2.03;;;19.60;99.90;;;;;;12472135;28;20080;-86
2022/06/19 01:37:51;;;;;;;8.00;2.70;;;19.60;99.90;;;;;;12454300;28;20524;-86
2022/06/19 01:43:54;;;;;;;4.43;2.17;;;19.60;99.90;;;;;;12453761;28;20060;-86
2022/06/19 01:49:59;;;;;;;6.57;2.10;;;19.50;99.90;;;;;;12455086;28;20144;-87
2022/06/19 01:56:03;;;;;;;4.18;1.92;;;19.50;99.90;;;;;;12479408;28;20527;-86
2022/06/19 02:02:08;;;;;;;4.93;2.30;;;19.60;99.90;;;;;;12474485;28;20410;-86
2022/06/19 02:08:13;;;;;;;3.85;2.15;;;19.50;99.90;;;;;;12459200;28;20494;-86
2022/06/19 02:14:17;;;;;;;4.55;2.28;;;19.50;99.90;;;;;;12445214;28;20044;-86
2022/06/19 02:20:21;;;;;;;6.45;2.45;;;19.40;99.90;;;;;;12445758;28;20480;-86
2022/06/19 02:26:22;;;;;;;4.40;1.95;;;19.30;99.90;;;;;;12476838;28;20124;-87
2022/06/19 02:32:33;;;;;;;5.18;2.05;;;19.20;99.90;;;;;;12496445;28;20497;-87
2022/06/19 02:38:34;;;;;;;4.40;1.83;;;19.10;99.90;;;;;;12479776;28;20096;-88
2022/06/19 02:44:39;;;;;;;3.80;1.50;;;19.00;99.90;;;;;;12455683;28;20192;-87
2022/06/19 02:50:42;;;;;;;5.70;1.80;;;18.80;99.90;;;;;;12450262;28;20073;-87
2022/06/19 02:56:44;;;;;;;4.15;1.88;;;18.70;99.90;;;;;;12456812;28;20052;-87
2022/06/19 03:02:49;;;;;;;3.97;1.33;;;18.50;99.90;;;;;;12457951;28;20054;-87
2022/06/19 03:08:51;;;;;;;4.13;1.60;;;18.30;99.90;;;;;;12485826;28;20049;-86
2022/06/19 03:14:53;;;;;;;5.25;1.25;;;18.10;99.90;;;;;;12465837;28;20033;-88
2022/06/19 03:20:55;;;;;;;4.93;1.25;;;18.00;99.90;;;;;;12467220;28;20045;-86
2022/06/19 03:26:57;;;;;;;5.82;1.38;;;17.80;99.90;;;;;;12484455;28;20034;-86
2022/06/19 03:32:58;;;;;;;3.00;1.08;;;17.90;99.90;;;;;;12472402;28;20512;-86
2022/06/19 03:39:00;;;;;;;9.52;1.52;;;17.90;99.90;;;;;;12465089;28;20065;-86
2022/06/19 03:45:02;;;;;;;6.40;1.50;;;17.80;99.90;;;;;;12480932;28;20091;-87
2022/06/19 03:51:04;;;;;;;3.83;1.23;;;17.80;99.90;;;;;;12483914;28;20132;-86
2022/06/19 03:57:07;;;;;;;4.07;1.52;;;17.80;99.90;;;;;;12482615;28;20083;-86
2022/06/19 04:03:08;;;;;;;3.85;1.45;;;17.50;99.90;;;;;;12467599;28;20044;-86
2022/06/19 04:09:15;;;;;;;5.88;1.45;;;17.70;99.90;;;;;;12469255;28;20045;-86
2022/06/19 04:15:17;;;;;;;6.93;1.40;;;17.80;99.90;;;;;;12468196;28;20069;-87
2022/06/19 04:21:25;;;;;;;10.63;1.70;;;17.70;99.90;;;;;;12467317;28;20138;-86
2022/06/19 04:27:27;;;;;;;8.85;1.85;;;17.70;99.90;;;;;;12462831;28;20180;-86
2022/06/19 04:33:30;;;;;;;9.48;1.85;;;17.40;99.90;;;;;;12478876;28;20132;-86
2022/06/19 04:39:33;;;;;;;10.40;1.90;;;17.40;99.90;;;;;;12470579;28;20485;-86
2022/06/19 04:45:35;;;;;;;15.98;2.40;;;17.40;99.90;;;;;;12474021;28;20160;-85
2022/06/19 04:51:37;;;;;;;14.95;2.25;;;17.10;99.90;;;;;;12466779;28;20457;-86
2022/06/19 04:57:39;;;;;;;11.63;2.40;;;17.00;99.90;;;;;;12482468;28;20049;-86
2022/06/19 05:03:41;;;;;;;18.25;3.05;;;16.90;99.90;;;;;;12457801;28;20142;-85
2022/06/19 05:09:42;;;;;;;15.00;2.70;;;16.60;99.90;;;;;;12471331;28;20451;-85
2022/06/19 05:15:50;;;;;;;14.02;2.53;;;16.60;99.90;;;;;;12480209;28;20073;-85
2022/06/19 05:21:52;;;;;;;15.82;2.95;;;16.70;99.90;;;;;;12480068;28;20409;-86
2022/06/19 05:27:53;;;;;;;12.18;2.28;;;16.50;99.90;;;;;;12468619;28;20469;-85
2022/06/19 05:33:56;;;;;;;15.88;2.85;;;16.40;99.90;;;;;;12465345;28;20293;-88
2022/06/19 05:39:58;;;;;;;13.15;2.75;;;16.40;99.90;;;;;;12466394;28;20046;-86
2022/06/19 05:46:06;;;;;;;15.05;2.72;;;16.30;99.90;;;;;;12464968;28;20467;-87
2022/06/19 05:52:24;;;;;;;13.63;2.60;;;16.10;99.90;;;;;;12457032;28;20541;-87
2022/06/19 05:58:26;;;;;;;11.95;2.55;;;16.00;99.90;;;;;;12480444;28;20053;-87
2022/06/19 06:04:28;;;;;;;12.88;2.35;;;16.00;99.90;;;;;;12483442;28;20046;-86
2022/06/19 06:10:30;;;;;;;9.52;2.15;;;15.90;99.90;;;;;;12467493;28;20076;-86
2022/06/19 06:16:32;;;;;;;10.57;2.17;;;15.90;99.90;;;;;;12478958;28;20199;-85
2022/06/19 06:22:33;;;;;;;13.90;3.00;;;16.10;99.90;;;;;;12467173;28;20053;-86
2022/06/19 06:28:39;;;;;;;9.45;2.30;;;16.10;99.90;;;;;;12462355;28;20200;-87
2022/06/19 06:34:40;;;;;;;8.43;1.88;;;16.40;99.90;;;;;;12461076;28;20058;-86
2022/06/19 06:40:42;;;;;;;11.35;2.17;;;16.40;99.90;;;;;;12467411;28;20195;-86
2022/06/19 06:46:44;;;;;;;10.52;2.50;;;16.60;99.90;;;;;;12474505;28;20154;-87
2022/06/19 06:52:46;;;;;;;12.18;2.47;;;16.50;99.90;;;;;;12487041;28;20077;-86
2022/06/19 06:58:48;;;;;;;13.43;2.60;;;16.60;99.90;;;;;;12501226;28;20604;-86
2022/06/19 07:04:50;;;;;;;12.60;2.60;;;16.80;99.90;;;;;;12465489;28;20068;-87
2022/06/19 07:10:52;;;;;;;13.48;2.20;;;17.00;99.90;;;;;;12487514;28;20130;-87
2022/06/19 07:16:54;;;;;;;14.57;2.38;;;16.90;99.90;;;;;;12489606;28;20179;-86
2022/06/19 07:22:56;;;;;;;15.65;2.10;;;17.20;99.90;;;;;;12487523;28;20100;-86
2022/06/19 07:28:58;;;;;;;11.32;2.20;;;17.30;99.90;;;;;;12467068;28;20137;-86
2022/06/19 07:35:08;;;;;;;15.10;2.40;;;17.50;99.90;;;;;;12485713;28;20084;-87
2022/06/19 07:41:10;;;;;;;10.93;2.55;;;17.40;99.90;;;;;;12469098;28;20541;-86
2022/06/19 07:53:33;;;;;;;12.00;2.40;;;17.80;99.90;;;;;;12488188;28;20132;-87
2022/06/19 07:59:34;;;;;;;12.63;2.58;;;18.00;99.90;;;;;;12511292;28;20123;-86
2022/06/19 08:05:38;;;;;;;9.90;2.17;;;18.00;99.90;;;;;;12468847;28;20061;-86
2022/06/19 08:11:40;;;;;;;8.73;2.00;;;18.10;99.90;;;;;;12468527;28;20091;-86
2022/06/19 08:17:42;;;;;;;11.02;2.50;;;18.10;99.90;;;;;;12467703;28;20398;-86
2022/06/19 08:23:44;;;;;;;13.10;2.70;;;18.10;99.90;;;;;;12463518;28;20083;-86
2022/06/19 08:29:46;;;;;;;11.50;2.20;;;18.00;99.90;;;;;;12484878;28;20161;-85
2022/06/19 08:35:52;;;;;;;9.85;2.45;;;18.10;99.90;;;;;;12465172;28;20136;-85
2022/06/19 08:42:21;;;;;;;10.77;2.63;;;18.20;99.90;;;;;;12467334;28;20463;-86
2022/06/19 08:48:47;;;;;;;7.32;2.00;;;18.20;99.90;;;;;;12483891;28;20041;-86
2022/06/19 08:55:35;;;;;;;8.80;2.50;;;18.40;99.90;;;;;;12460036;28;20041;-85
2022/06/19 09:02:04;;;;;;;11.27;1.92;;;18.50;99.90;;;;;;12371908;28;20193;-85
2022/06/19 09:08:25;;;;;;;7.38;1.80;;;18.70;99.90;;;;;;12487213;28;20049;-88
2022/06/19 09:14:41;;;;;;;10.75;2.25;;;19.10;99.90;;;;;;12479473;28;20471;-86
2022/06/19 09:21:05;;;;;;;8.13;2.10;;;19.30;99.90;;;;;;12466466;28;20045;-87
2022/06/19 09:27:10;;;;;;;8.70;2.15;;;19.20;99.90;;;;;;12476854;28;20038;-86
2022/06/19 09:33:20;;;;;;;11.15;2.10;;;19.30;99.90;;;;;;12483789;28;20057;-85
2022/06/19 09:39:33;;;;;;;10.93;2.13;;;19.40;99.90;;;;;;12481329;28;20041;-86
2022/06/19 09:45:44;;;;;;;12.15;2.25;;;19.60;99.90;;;;;;12480778;28;20485;-85
2022/06/19 09:52:01;;;;;;;9.68;1.95;;;19.60;99.90;;;;;;12475006;28;20534;-86
2022/06/19 09:58:12;;;;;;;13.77;2.25;;;20.00;99.90;;;;;;12480947;28;20459;-87
2022/06/19 10:04:59;;;;;;;6.10;1.77;;;20.00;99.90;;;;;;12480087;28;20462;-88
2022/06/19 10:11:16;;;;;;;8.82;2.40;;;20.20;99.90;;;;;;12457996;28;20124;-86
2022/06/19 10:17:30;;;;;;;9.73;2.00;;;20.20;99.90;;;;;;12478826;28;20049;-88
2022/06/19 10:23:53;;;;;;;9.55;1.88;;;20.40;99.90;;;;;;12474519;28;20639;-89
2022/06/19 10:30:04;;;;;;;5.72;1.58;;;20.70;99.90;;;;;;12475742;28;20520;-88
2022/06/19 10:36:15;;;;;;;6.82;1.65;;;20.60;99.90;;;;;;12447457;28;20050;-86
2022/06/19 10:42:17;;;;;;;8.60;1.80;;;20.70;99.90;;;;;;12457252;28;20076;-87
2022/06/19 10:48:39;;;;;;;5.68;1.65;;;20.60;99.90;;;;;;12464328;28;20107;-86
2022/06/19 10:54:43;;;;;;;10.85;2.17;;;20.40;99.90;;;;;;12457290;28;20099;-86
2022/06/19 11:00:51;;;;;;;10.77;2.25;;;20.30;99.90;;;;;;12480288;28;20069;-88
2022/06/19 11:07:16;;;;;;;8.13;2.05;;;20.20;99.90;;;;;;12501428;28;20081;-87
2022/06/19 11:13:19;;;;;;;9.30;2.03;;;20.20;99.90;;;;;;12468878;28;20046;-86
2022/06/19 11:19:34;;;;;;;9.88;1.80;;;20.10;99.90;;;;;;12464085;28;20455;-86
2022/06/19 11:25:58;;;;;;;6.90;1.80;;;20.00;99.90;;;;;;12463089;28;20091;-86
2022/06/19 11:32:15;;;;;;;6.90;1.70;;;20.10;99.90;;;;;;12488987;28;20042;-87
2022/06/19 11:38:36;;;;;;;8.32;1.92;;;20.20;99.90;;;;;;12466610;28;20429;-86
2022/06/19 11:44:51;;;;;;;8.32;2.10;;;20.50;99.90;;;;;;12484706;28;20451;-86
2022/06/19 11:50:54;;;;;;;8.20;1.90;;;21.10;99.90;;;;;;12463982;28;20094;-87
2022/06/19 11:56:57;;;;;;;8.82;1.70;;;21.20;99.90;;;;;;12474973;28;20128;-86
2022/06/19 12:03:05;;;;;;;7.70;1.93;;;20.90;99.90;;;;;;12490581;28;20043;-86
2022/06/19 12:09:38;;;;;;;6.47;1.70;;;20.90;99.90;;;;;;12487160;28;20103;-87
2022/06/19 12:15:53;;;;;;;9.32;1.83;;;20.80;99.90;;;;;;12470759;28;20142;-86
2022/06/19 12:22:04;;;;;;;9.35;2.13;;;20.80;99.90;;;;;;12486368;28;20065;-87
2022/06/19 12:28:15;;;;;;;6.38;2.13;;;21.10;99.90;;;;;;12463468;28;20045;-87
2022/06/19 12:34:34;;;;;;;5.82;1.88;;;21.40;99.90;;;;;;12470973;28;20058;-87
2022/06/19 12:41:26;;;;;;;8.85;1.98;;;21.70;99.90;;;;;;12472247;28;20033;-87
2022/06/19 12:47:43;;;;;;;8.23;1.95;;;21.80;99.90;;;;;;12434065;28;20072;-88
2022/06/19 12:53:51;;;;;;;11.32;2.20;;;21.80;99.90;;;;;;12484504;28;20063;-87
2022/06/19 13:00:11;;;;;;;7.18;2.30;;;21.70;99.90;;;;;;12482203;28;20542;-87
2022/06/19 13:06:41;;;;;;;5.90;1.92;;;21.40;99.90;;;;;;12470956;28;20067;-87
2022/06/19 13:13:03;;;;;;;8.88;1.92;;;21.30;99.90;;;;;;12465044;28;20123;-86
2022/06/19 13:19:15;;;;;;;8.90;1.80;;;21.50;99.90;;;;;;12486382;28;20053;-87
2022/06/19 13:25:40;;;;;;;6.18;1.38;;;21.40;99.90;;;;;;12482585;28;20184;-86
2022/06/19 13:31:55;;;;;;;8.18;1.63;;;21.10;99.90;;;;;;12460390;28;20590;-88
2022/06/19 13:38:38;;;;;;;6.97;1.83;;;20.70;99.90;;;;;;12487372;28;20049;-86
2022/06/19 13:44:52;;;;;;;10.02;2.03;;;20.40;99.90;;;;;;12455027;28;20069;-87
2022/06/19 13:51:00;;;;;;;6.95;1.70;;;20.30;99.90;;;;;;12467936;28;20105;-87
2022/06/19 13:57:12;;;;;;;7.18;1.92;;;20.10;99.90;;;;;;12486552;28;20049;-86
2022/06/19 14:10:44;;;;;;;6.25;1.60;;;20.20;99.90;;;;;;12475492;28;20057;-86
2022/06/19 14:17:15;;;;;;;4.70;1.70;;;20.40;99.90;;;;;;12477606;28;20042;-86
2022/06/19 14:23:32;;;;;;;8.43;1.60;;;20.40;99.90;;;;;;12460833;28;20045;-87
2022/06/19 14:29:54;;;;;;;9.60;1.88;;;20.20;99.90;;;;;;12452748;28;20056;-87
2022/06/19 14:36:11;;;;;;;8.88;1.45;;;19.80;99.90;;;;;;12466201;28;20645;-89
2022/06/19 14:42:14;;;;;;;4.65;1.58;;;19.40;99.90;;;;;;12464475;28;20132;-87
2022/06/19 14:48:44;;;;;;;5.18;1.13;;;19.30;99.90;;;;;;12480827;28;20057;-87
2022/06/19 14:55:21;;;;;;;4.18;0.90;;;19.30;99.90;;;;;;12479127;28;20111;-87
2022/06/19 15:01:30;;;;;;;3.95;1.10;;;19.30;99.90;;;;;;12513128;28;20045;-87
2022/06/19 15:07:32;;;;;;;6.72;1.23;;;19.20;99.90;;;;;;12487021;28;20053;-87
2022/06/19 15:13:42;;;;;;;5.85;1.45;;;19.00;99.90;;;;;;12491892;28;20461;-90
2022/06/19 15:19:47;;;;;;;3.88;1.00;;;19.30;99.90;;;;;;12491455;28;20172;-88
2022/06/19 15:25:48;;;;;;;4.05;1.13;;;19.40;99.90;;;;;;12486101;28;20103;-87
2022/06/19 15:31:56;;;;;;;3.22;1.27;;;19.50;99.90;;;;;;12472409;28;20140;-86
2022/06/19 15:38:04;;;;;;;5.80;1.20;;;19.60;99.90;;;;;;12490812;28;20505;-88
2022/06/19 15:44:18;;;;;;;3.05;1.08;;;19.50;99.90;;;;;;12468180;28;20045;-87
2022/06/19 15:50:49;;;;;;;4.65;1.10;;;19.10;99.90;;;;;;12491760;28;20064;-87
2022/06/19 16:05:48;;;;;;;6.93;1.77;;;18.30;99.90;;;;;;12529874;28;20897;-80
2022/06/19 16:12:06;;;;;;;5.90;1.30;;;18.20;99.90;;;;;;12565472;28;20094;-81
2022/06/19 16:18:25;;;;;;;5.28;2.17;;;18.20;99.90;;;;;;12540869;28;20121;-81
2022/06/19 16:24:52;;;;;;;2.45;1.30;;;18.30;99.90;;;;;;12555893;28;20449;-82
2022/06/19 16:31:02;;;;;;;4.07;1.63;;;18.40;99.90;;;;;;12527220;28;20098;-81
2022/06/19 16:44:02;;;;;;;7.10;2.25;;;19.00;99.90;;;;;;12555183;28;20219;-81
2022/06/19 16:50:08;;;;;;;4.53;1.80;;;19.30;99.90;;;;;;12520692;28;20045;-81
2022/06/19 16:56:10;;;;;;;4.65;1.80;;;19.30;99.90;;;;;;12515426;28;20349;-81
2022/06/19 17:02:18;;;;;;;2.83;1.70;;;19.40;99.90;;;;;;12524362;28;20045;-81
2022/06/19 17:08:40;;;;;;;3.08;1.75;;;19.40;99.90;;;;;;12537581;28;20173;-80
2022/06/19 17:14:48;;;;;;;4.07;1.67;;;19.00;99.90;;;;;;12609757;22;20493;-80
2022/06/19 17:20:50;;;;;;;7.95;2.25;;;18.40;99.90;;;;;;12373714;28;20113;-80
2022/06/19 17:27:11;;;;;;;6.25;1.90;;;18.10;99.90;;;;;;12414801;28;20054;-79
2022/06/19 17:33:35;;;;;;;5.07;1.75;;;18.10;99.90;;;;;;12395819;28;20046;-80
2022/06/19 17:39:39;;;;;;;5.47;1.98;;;17.90;99.90;;;;;;12403566;28;20116;-79
2022/06/19 17:45:46;;;;;;;6.72;2.30;;;17.80;99.90;;;;;;12409364;28;20124;-80
2022/06/19 17:51:48;;;;;;;5.70;2.30;;;17.80;99.90;;;;;;12394513;28;20088;-80
2022/06/19 17:58:14;;;;;;;6.22;2.17;;;17.70;99.90;;;;;;12415228;28;20524;-79
2022/06/19 18:04:20;;;;;;;6.88;2.08;;;17.60;99.90;;;;;;12411239;28;20595;-79
2022/06/19 18:10:41;;;;;;;6.35;2.10;;;17.30;99.90;;;;;;12408974;28;20411;-79
2022/06/19 18:23:03;;;;;;;4.50;1.58;;;17.40;99.90;;;;;;12368088;28;20054;-80
2022/06/19 18:29:22;;;;;;;6.78;1.80;;;17.40;99.90;;;;;;12366095;28;20556;-80
2022/06/19 18:35:24;;;;;;;6.82;2.00;;;17.50;99.90;;;;;;12377054;28;20054;-80
2022/06/19 18:41:28;;;;;;;6.47;1.73;;;17.20;99.90;;;;;;12375683;28;20042;-81
2022/06/19 18:47:31;;;;;;;;;;;17.00;99.90;;;;;;12353822;28;20104;-79
2022/06/19 18:53:35;;;;;;;4.82;2.03;;;16.90;99.90;;;;;;12365577;28;19930;-79
2022/06/19 18:59:37;;;;;;;9.05;2.63;;;16.90;99.90;;;;;;12363242;28;20058;-80
2022/06/19 19:05:41;;;;;;;7.20;3.00;;;16.80;99.90;;;;;;12355182;28;20129;-79
2022/06/19 19:11:43;;;;;;;;;;;16.90;99.90;;;;;;12366106;28;20205;-79
2022/06/19 19:17:45;;;;;;;4.97;2.13;;;16.70;99.90;;;;;;12356819;28;20336;-79
2022/06/19 19:23:47;;;;;;;5.30;2.20;;;16.60;99.90;;;;;;12365749;28;20133;-79
2022/06/19 19:29:58;;;;;;;3.88;2.03;;;16.70;99.90;;;;;;12391306;28;20129;-80
2022/06/19 19:36:00;;;;;;;5.78;2.50;;;16.50;99.90;;;;;;12356727;28;20137;-81
2022/06/19 19:42:12;;;;;;;8.25;2.50;;;16.40;99.90;;;;;;12376057;28;20180;-80
2022/06/19 19:48:18;;;;;;;6.05;2.60;;;16.40;99.90;;;;;;12364730;28;20455;-79
2022/06/19 19:54:20;;;;;;;9.73;2.80;;;16.40;99.90;;;;;;12363199;28;20085;-79
2022/06/19 20:00:22;;;;;;;8.02;2.35;;;16.30;99.90;;;;;;12366887;28;20489;-79
2022/06/19 20:12:45;;;;;;;5.05;2.08;;;16.10;99.90;;;;;;12374067;28;20050;-79
2022/06/19 20:18:47;;;;;;;7.70;2.10;;;16.00;99.90;;;;;;12353643;28;20081;-78
2022/06/19 20:24:53;;;;;;;6.30;2.20;;;15.40;99.90;;;;;;12361356;28;20035;-80
2022/06/19 20:30:55;;;;;;;6.53;2.03;;;15.20;99.90;;;;;;12344721;28;20081;-78
2022/06/19 20:36:57;;;;;;;6.05;2.03;;;15.30;99.90;;;;;;12370565;28;20453;-79
2022/06/19 20:42:59;;;;;;;7.68;2.80;;;15.30;99.90;;;;;;12377048;28;20089;-80
2022/06/19 20:49:01;;;;;;;5.45;1.88;;;15.50;99.90;;;;;;12365396;28;20551;-79
2022/06/19 20:55:29;;;;;;;6.32;2.97;;;15.30;99.90;;;;;;12367795;28;20460;-80
2022/06/19 21:01:31;;;;;;;6.88;2.13;;;15.10;99.90;;;;;;12375442;28;20137;-80
2022/06/19 21:07:33;;;;;;;6.32;1.90;;;15.00;99.90;;;;;;12384696;28;20085;-80
2022/06/19 21:13:37;;;;;;;8.55;2.42;;;15.00;99.90;;;;;;12368949;28;20042;-80
2022/06/19 21:19:39;;;;;;;6.25;2.03;;;15.10;99.90;;;;;;12347396;28;20145;-79
2022/06/19 21:25:42;;;;;;;7.45;2.38;;;15.00;99.90;;;;;;12368085;28;20513;-79
2022/06/19 21:31:44;;;;;;;5.20;1.87;;;15.00;99.90;;;;;;12363270;28;20182;-79
2022/06/19 21:37:53;;;;;;;6.10;2.03;;;15.10;99.90;;;;;;12380919;28;20308;-80
2022/06/19 21:43:55;;;;;;;6.07;2.10;;;15.10;99.90;;;;;;12372770;28;20050;-79
2022/06/19 21:49:57;;;;;;;5.80;2.00;;;15.00;99.90;;;;;;12372881;28;20138;-79
2022/06/19 21:55:59;;;;;;;5.38;2.03;;;15.00;99.90;;;;;;12375786;28;20547;-80
2022/06/19 22:02:01;;;;;;;7.10;1.88;;;15.00;99.90;;;;;;12359261;28;20081;-79
2022/06/19 22:08:03;;;;;;;6.32;2.25;;;15.00;99.90;;;;;;12366129;28;20078;-79
2022/06/19 22:14:05;;;;;;;5.88;2.28;;;15.10;99.90;;;;;;12366517;28;20077;-79
2022/06/19 22:20:08;;;;;;;6.05;2.10;;;15.20;99.90;;;;;;12373004;28;20133;-79
2022/06/19 22:26:20;;;;;;;4.57;1.88;;;15.10;99.90;;;;;;12359406;28;20049;-79
2022/06/19 22:32:23;;;;;;;4.10;1.85;;;15.10;99.90;;;;;;12381010;28;20043;-79
2022/06/19 22:38:24;;;;;;;5.63;2.10;;;15.10;99.90;;;;;;12361238;28;20506;-79
2022/06/19 22:44:30;;;;;;;8.23;2.70;;;14.90;99.90;;;;;;12357823;28;20104;-80
2022/06/19 22:50:32;;;;;;;7.18;2.60;;;15.00;99.90;;;;;;12359581;28;20050;-80
2022/06/19 22:56:34;;;;;;;7.68;2.42;;;15.00;99.90;;;;;;12397337;28;20053;-80
2022/06/19 23:02:36;;;;;;;6.80;2.80;;;15.00;99.90;;;;;;12352500;28;20050;-79
2022/06/19 23:08:42;;;;;;;9.50;2.97;;;15.00;99.90;;;;;;12356641;28;20154;-79
2022/06/19 23:14:44;;;;;;;5.07;2.50;;;14.90;99.90;;;;;;12357692;28;20421;-79
2022/06/19 23:20:54;;;;;;;6.65;2.75;;;14.60;99.90;;;;;;12377119;28;20096;-79
2022/06/19 23:26:56;;;;;;;7.18;3.05;;;14.60;99.90;;;;;;12370177;28;20100;-79
2022/06/19 23:32:58;;;;;;;9.35;2.90;;;14.50;99.90;;;;;;12367903;28;20057;-79
2022/06/19 23:39:04;;;;;;;6.03;2.92;;;14.70;99.90;;;;;;12362136;28;20093;-79
2022/06/19 23:45:18;;;;;;;5.88;2.50;;;14.30;99.90;;;;;;12359891;28;20705;-79
2022/06/19 23:51:20;;;;;;;6.70;2.67;;;14.20;99.90;;;;;;12341368;28;20105;-79
2022/06/19 23:57:22;;;;;;;5.95;2.60;;;14.40;99.90;;;;;;12355444;28;20146;-79
